Charles Darwin — GDLS — position and weather

sailwx.info

Track history (hours):
 
Tides and Currents Weather Stations Pressure Air Temp Water Temp Dewpoint Dewpoint Depression Visibility Wind Speed Wind Dir Waves Ship Positions

Oceanographic research ship Charles Darwin (UK)

Detailed information on ship capabilities available from University of Delaware's Ocean Information Center.

Last reported at 2019-Sep-17 05:25 UTC. Time now 2019-Sep-21 05:37 UTC.
Position N 39°05' W 074°21'.

Length 70 m; draft 5.7 m.

Type: Cargo ship. MMSI: 235011460.

Date/timePositionNaut miles runAvg speedWind from/ knotsBaromVisibWave heightAir tempDewpointWater temp
2019-Sep-17 05:25N 39°05' W 074°21'2 3.7
2019-Sep-17 04:52N 39°07' W 074°22'1 2.9
2019-Sep-17 04:30N 39°08' W 074°22'6 3.4
2019-Sep-17 02:40N 39°02' W 074°17'1 3.7
2019-Sep-17 02:30N 39°02' W 074°17'2 3.1
2019-Sep-17 01:48N 39°00' W 074°15'1 3.3
2019-Sep-17 01:28N 38°59' W 074°15'1 2.3
2019-Sep-17 00:59N 38°60' W 074°16'2 3.6
2019-Sep-17 00:26N 39°01' W 074°17'2 3.8
2019-Sep-16 23:55N 39°03' W 074°19'2 3.7
2019-Sep-16 23:27N 39°04' W 074°20'2 4.0
2019-Sep-16 23:00N 39°06' W 074°22'2 4.0
2019-Sep-16 22:30N 39°07' W 074°23'1 2.5
2019-Sep-16 22:00N 39°07' W 074°22'2 4.0
2019-Sep-16 21:30N 39°05' W 074°21'7 4.0
2019-Sep-16 19:52N 38°60' W 074°15'2 4.0
2019-Sep-16 19:27N 39°01' W 074°17'6 4.0
2019-Sep-16 18:02N 39°05' W 074°21'0 4.1
2019-Sep-16 18:00N 39°06' W 074°21'2 3.9
2019-Sep-16 17:27N 39°07' W 074°23'5 1.5
2019-Sep-16 14:02N 39°04' W 074°18'0 4.0
2019-Sep-16 14:00N 39°04' W 074°18'0 0.6
2019-Sep-16 13:30N 39°04' W 074°18'2 3.4
2019-Sep-16 12:57N 39°05' W 074°19'2 2.2
2019-Sep-16 12:05N 39°07' W 074°21'1 2.3
2019-Sep-16 11:51N 39°06' W 074°20'4 3.9
2019-Sep-16 10:42N 39°03' W 074°17'3 3.5
2019-Sep-16 09:45N 39°05' W 074°20'1 2.8
2019-Sep-16 09:29N 39°06' W 074°20'0 0.7
2019-Sep-16 09:00N 39°06' W 074°21'0 0.2
2019-Sep-16 08:30N 39°06' W 074°21'0 0.2
2019-Sep-16 07:55N 39°06' W 074°20'0 0.1
2019-Sep-16 07:20N 39°06' W 074°20'0 0.1
2019-Sep-16 07:00N 39°06' W 074°20'0 0.0
2019-Sep-16 05:16N 39°06' W 074°20'  
2019-Sep-12 08:56N 39°05' W 074°12'3 1.9
2019-Sep-12 07:33N 39°07' W 074°14'0 3.9
2019-Sep-12 07:27N 39°08' W 074°15'3 0.6
2019-Sep-12 03:14N 39°10' W 074°13'1 3.9
2019-Sep-12 03:00N 39°11' W 074°14'3 0.8
2019-Sep-11 23:22N 39°09' W 074°17'2 4.4
2019-Sep-11 23:00N 39°09' W 074°19'2 3.1
2019-Sep-11 22:29N 39°09' W 074°21'1 0.6
2019-Sep-11 21:06N 39°08' W 074°20'3 4.0
2019-Sep-11 20:18N 39°05' W 074°18'2 4.1
2019-Sep-11 19:46N 39°04' W 074°16'0 0.2
2019-Sep-11 19:26N 39°04' W 074°16'5 0.9
2019-Sep-11 14:17N 39°07' W 074°20'1 4.0
2019-Sep-11 13:58N 39°06' W 074°19'2 4.0
2019-Sep-11 13:30N 39°05' W 074°17'2 4.3
2019-Sep-11 13:00N 39°03' W 074°15'1 2.1
2019-Sep-11 12:19N 39°02' W 074°14'1 4.2
2019-Sep-11 12:00N 39°03' W 074°15'2 4.1
2019-Sep-11 11:30N 39°05' W 074°17'2 3.1
2019-Sep-11 10:56N 39°06' W 074°18'2 4.0
2019-Sep-11 10:29N 39°05' W 074°17'2 0.1
2019-Sep-09 11:55N 39°02' W 074°16'3 3.8
2019-Sep-09 11:10N 39°00' W 074°14'3 4.0
2019-Sep-09 10:28N 39°02' W 074°16'2 3.2
2019-Sep-09 09:47N 39°04' W 074°18'1 4.1
2019-Sep-09 09:30N 39°03' W 074°17'0 0.4
2019-Sep-09 08:31N 39°03' W 074°17'0 3.6
2019-Sep-09 08:30N 39°03' W 074°17'3 3.5
2019-Sep-09 07:44N 39°05' W 074°19'2 2.3
2019-Sep-09 06:43N 39°04' W 074°16'1 4.2
2019-Sep-09 06:30N 39°03' W 074°15'1 1.9
2019-Sep-09 05:59N 39°02' W 074°15'2 4.1
2019-Sep-09 05:30N 39°04' W 074°16'1 2.2
2019-Sep-09 04:52N 39°04' W 074°14'6 2.5
2019-Sep-09 02:31N 39°07' W 074°20'1 1.8
2019-Sep-09 01:54N 39°08' W 074°19'2 4.3
2019-Sep-09 01:30N 39°06' W 074°17'2 4.2
2019-Sep-09 01:00N 39°05' W 074°15'2 1.1
2019-Sep-08 22:43N 39°04' W 074°18'1 4.2
2019-Sep-08 22:30N 39°05' W 074°19'2 0.2
2019-Sep-08 12:03N 39°06' W 074°21'1 4.1
2019-Sep-08 11:51N 39°07' W 074°21'28 5.3
2019-Sep-08 06:30N 39°30' W 073°60'5 9.1
2019-Sep-08 06:00N 39°34' W 073°57'5 9.2
2019-Sep-08 05:30N 39°38' W 073°54'5 9.3
2019-Sep-08 05:00N 39°42' W 073°52'5 9.1
2019-Sep-08 04:30N 39°46' W 073°49'4 9.2
2019-Sep-08 04:00N 39°51' W 073°49'5 9.2
2019-Sep-08 03:29N 39°56' W 073°49'35 8.7
2019-Sep-07 23:24N 40°30' W 073°58'410.1
2019-Sep-07 23:00N 40°33' W 074°02'510.2
2019-Sep-07 22:30N 40°38' W 074°04'4 7.9
2019-Sep-07 22:00N 40°38' W 074°09'2 1.6
2019-Sep-07 20:41N 40°38' W 074°12'0 0.0
2019-Sep-07 20:08N 40°38' W 074°12'0 0.0
2019-Sep-07 17:56N 40°38' W 074°12'0 0.0
2019-Sep-07 12:11N 40°38' W 074°12'0 0.0
2019-Sep-07 11:17N 40°38' W 074°12'0 0.0
2019-Sep-07 09:53N 40°38' W 074°12'0 0.0
2019-Sep-07 09:17N 40°38' W 074°12'0 0.0
2019-Sep-07 08:59N 40°38' W 074°12'0 0.0
2019-Sep-07 08:11N 40°38' W 074°12'0 0.0
2019-Sep-07 05:38N 40°38' W 074°12'0 0.0
2019-Sep-07 05:29N 40°38' W 074°12'  
Track history (hours):
 
Tides and Currents Weather Stations Pressure Air Temp Water Temp Dewpoint Dewpoint Depression Visibility Wind Speed Wind Dir Waves Ship Positions

Oceanographic research ship Charles Darwin (UK)

Detailed information on ship capabilities available from University of Delaware's Ocean Information Center.

Last reported at 2019-Sep-17 05:25 UTC. Time now 2019-Sep-21 05:37 UTC.
Position N 39°05' W 074°21'.

Length 70 m; draft 5.7 m.

Type: Cargo ship. MMSI: 235011460.

Date/timePositionNaut miles runAvg speedWind from/ knotsBaromVisibWave heightAir tempDewpointWater temp
2019-Sep-17 05:25N 39°05' W 074°21'2 3.7
2019-Sep-17 04:52N 39°07' W 074°22'1 2.9
2019-Sep-17 04:30N 39°08' W 074°22'6 3.4
2019-Sep-17 02:40N 39°02' W 074°17'1 3.7
2019-Sep-17 02:30N 39°02' W 074°17'2 3.1
2019-Sep-17 01:48N 39°00' W 074°15'1 3.3
2019-Sep-17 01:28N 38°59' W 074°15'1 2.3
2019-Sep-17 00:59N 38°60' W 074°16'2 3.6
2019-Sep-17 00:26N 39°01' W 074°17'2 3.8
2019-Sep-16 23:55N 39°03' W 074°19'2 3.7
2019-Sep-16 23:27N 39°04' W 074°20'2 4.0
2019-Sep-16 23:00N 39°06' W 074°22'2 4.0
2019-Sep-16 22:30N 39°07' W 074°23'1 2.5
2019-Sep-16 22:00N 39°07' W 074°22'2 4.0
2019-Sep-16 21:30N 39°05' W 074°21'7 4.0
2019-Sep-16 19:52N 38°60' W 074°15'2 4.0
2019-Sep-16 19:27N 39°01' W 074°17'6 4.0
2019-Sep-16 18:02N 39°05' W 074°21'0 4.1
2019-Sep-16 18:00N 39°06' W 074°21'2 3.9
2019-Sep-16 17:27N 39°07' W 074°23'5 1.5
2019-Sep-16 14:02N 39°04' W 074°18'0 4.0
2019-Sep-16 14:00N 39°04' W 074°18'0 0.6
2019-Sep-16 13:30N 39°04' W 074°18'2 3.4
2019-Sep-16 12:57N 39°05' W 074°19'2 2.2
2019-Sep-16 12:05N 39°07' W 074°21'1 2.3
2019-Sep-16 11:51N 39°06' W 074°20'4 3.9
2019-Sep-16 10:42N 39°03' W 074°17'3 3.5
2019-Sep-16 09:45N 39°05' W 074°20'1 2.8
2019-Sep-16 09:29N 39°06' W 074°20'0 0.7
2019-Sep-16 09:00N 39°06' W 074°21'0 0.2
2019-Sep-16 08:30N 39°06' W 074°21'0 0.2
2019-Sep-16 07:55N 39°06' W 074°20'0 0.1
2019-Sep-16 07:20N 39°06' W 074°20'0 0.1
2019-Sep-16 07:00N 39°06' W 074°20'0 0.0
2019-Sep-16 05:16N 39°06' W 074°20'  
2019-Sep-12 08:56N 39°05' W 074°12'3 1.9
2019-Sep-12 07:33N 39°07' W 074°14'0 3.9
2019-Sep-12 07:27N 39°08' W 074°15'3 0.6
2019-Sep-12 03:14N 39°10' W 074°13'1 3.9
2019-Sep-12 03:00N 39°11' W 074°14'3 0.8
2019-Sep-11 23:22N 39°09' W 074°17'2 4.4
2019-Sep-11 23:00N 39°09' W 074°19'2 3.1
2019-Sep-11 22:29N 39°09' W 074°21'1 0.6
2019-Sep-11 21:06N 39°08' W 074°20'3 4.0
2019-Sep-11 20:18N 39°05' W 074°18'2 4.1
2019-Sep-11 19:46N 39°04' W 074°16'0 0.2
2019-Sep-11 19:26N 39°04' W 074°16'5 0.9
2019-Sep-11 14:17N 39°07' W 074°20'1 4.0
2019-Sep-11 13:58N 39°06' W 074°19'2 4.0
2019-Sep-11 13:30N 39°05' W 074°17'2 4.3
2019-Sep-11 13:00N 39°03' W 074°15'1 2.1
2019-Sep-11 12:19N 39°02' W 074°14'1 4.2
2019-Sep-11 12:00N 39°03' W 074°15'2 4.1
2019-Sep-11 11:30N 39°05' W 074°17'2 3.1
2019-Sep-11 10:56N 39°06' W 074°18'2 4.0
2019-Sep-11 10:29N 39°05' W 074°17'2 0.1
2019-Sep-09 11:55N 39°02' W 074°16'3 3.8
2019-Sep-09 11:10N 39°00' W 074°14'3 4.0
2019-Sep-09 10:28N 39°02' W 074°16'2 3.2
2019-Sep-09 09:47N 39°04' W 074°18'1 4.1
2019-Sep-09 09:30N 39°03' W 074°17'0 0.4
2019-Sep-09 08:31N 39°03' W 074°17'0 3.6
2019-Sep-09 08:30N 39°03' W 074°17'3 3.5
2019-Sep-09 07:44N 39°05' W 074°19'2 2.3
2019-Sep-09 06:43N 39°04' W 074°16'1 4.2
2019-Sep-09 06:30N 39°03' W 074°15'1 1.9
2019-Sep-09 05:59N 39°02' W 074°15'2 4.1
2019-Sep-09 05:30N 39°04' W 074°16'1 2.2
2019-Sep-09 04:52N 39°04' W 074°14'6 2.5
2019-Sep-09 02:31N 39°07' W 074°20'1 1.8
2019-Sep-09 01:54N 39°08' W 074°19'2 4.3
2019-Sep-09 01:30N 39°06' W 074°17'2 4.2
2019-Sep-09 01:00N 39°05' W 074°15'2 1.1
2019-Sep-08 22:43N 39°04' W 074°18'1 4.2
2019-Sep-08 22:30N 39°05' W 074°19'2 0.2
2019-Sep-08 12:03N 39°06' W 074°21'1 4.1
2019-Sep-08 11:51N 39°07' W 074°21'28 5.3
2019-Sep-08 06:30N 39°30' W 073°60'5 9.1
2019-Sep-08 06:00N 39°34' W 073°57'5 9.2
2019-Sep-08 05:30N 39°38' W 073°54'5 9.3
2019-Sep-08 05:00N 39°42' W 073°52'5 9.1
2019-Sep-08 04:30N 39°46' W 073°49'4 9.2
2019-Sep-08 04:00N 39°51' W 073°49'5 9.2
2019-Sep-08 03:29N 39°56' W 073°49'35 8.7
2019-Sep-07 23:24N 40°30' W 073°58'410.1
2019-Sep-07 23:00N 40°33' W 074°02'510.2
2019-Sep-07 22:30N 40°38' W 074°04'4 7.9
2019-Sep-07 22:00N 40°38' W 074°09'2 1.6
2019-Sep-07 20:41N 40°38' W 074°12'0 0.0
2019-Sep-07 20:08N 40°38' W 074°12'0 0.0
2019-Sep-07 17:56N 40°38' W 074°12'0 0.0
2019-Sep-07 12:11N 40°38' W 074°12'0 0.0
2019-Sep-07 11:17N 40°38' W 074°12'0 0.0
2019-Sep-07 09:53N 40°38' W 074°12'0 0.0
2019-Sep-07 09:17N 40°38' W 074°12'0 0.0
2019-Sep-07 08:59N 40°38' W 074°12'0 0.0
2019-Sep-07 08:11N 40°38' W 074°12'0 0.0
2019-Sep-07 05:38N 40°38' W 074°12'0 0.0
2019-Sep-07 05:29N 40°38' W 074°12'  

Dump ship's entire track history